Time;durP1;ratioP1;P1;durP2;ratioP2;P2;SDS_P1;SDS_P2;PMS_P1;PMS_P2;Temp;Humidity;BMP_temperature;BMP_pressure;BME280_temperature;BME280_humidity;BME280_pressure;Samples;Min_cycle;Max_cycle;Signal;HPM_P1;HPM_P2
2021/01/06 00:02:11;;;;;;;27.87;18.97;;;5.10;44.30;;;;;;10395658;28;20225;-78
2021/01/06 00:07:14;;;;;;;27.87;18.70;;;5.10;44.30;;;;;;10396281;28;20222;-78
2021/01/06 00:12:18;;;;;;;30.17;19.53;;;5.00;44.30;;;;;;10394611;28;20226;-79
2021/01/06 00:17:21;;;;;;;28.73;18.93;;;5.00;44.40;;;;;;10391035;28;20234;-78
2021/01/06 00:22:24;;;;;;;31.20;20.47;;;5.10;44.60;;;;;;10397624;28;20229;-79
2021/01/06 00:27:27;;;;;;;30.33;19.30;;;5.10;44.50;;;;;;10398853;28;20226;-79
2021/01/06 00:32:29;;;;;;;29.83;18.80;;;5.10;44.40;;;;;;10383859;28;20224;-78
2021/01/06 00:37:32;;;;;;;31.17;19.27;;;5.10;44.30;;;;;;10394897;28;20221;-78
2021/01/06 00:42:35;;;;;;;30.90;18.53;;;5.10;44.40;;;;;;10383230;28;20248;-78
2021/01/06 00:47:38;;;;;;;26.87;17.60;;;5.00;44.50;;;;;;10392052;28;20221;-78
2021/01/06 00:52:41;;;;;;;29.63;19.03;;;5.00;44.50;;;;;;10376401;28;20230;-78
2021/01/06 00:57:43;;;;;;;27.93;17.17;;;5.00;44.50;;;;;;10387698;28;20417;-78
2021/01/06 01:02:50;;;;;;;29.37;18.17;;;5.10;44.60;;;;;;10393549;28;20882;-79
2021/01/06 01:07:55;;;;;;;28.10;17.40;;;5.10;44.50;;;;;;10386403;28;20685;-79
2021/01/06 01:12:58;;;;;;;34.53;19.93;;;5.00;44.50;;;;;;10387408;28;20604;-79
2021/01/06 01:18:06;;;;;;;28.10;18.00;;;5.00;44.50;;;;;;10391626;28;20277;-78
2021/01/06 01:23:09;;;;;;;31.70;19.47;;;5.00;44.70;;;;;;10389313;28;20311;-79
2021/01/06 01:28:12;;;;;;;29.43;19.40;;;5.00;44.80;;;;;;10399095;28;20230;-79
2021/01/06 01:33:14;;;;;;;26.97;17.57;;;5.00;44.80;;;;;;10386882;28;20229;-79
2021/01/06 01:38:20;;;;;;;29.57;19.47;;;5.00;44.80;;;;;;10390819;28;20222;-79
2021/01/06 01:43:23;;;;;;;28.83;19.23;;;5.10;45.00;;;;;;10391290;28;20304;-79
2021/01/06 01:48:30;;;;;;;32.03;19.43;;;5.10;44.70;;;;;;10384699;28;20309;-79
2021/01/06 01:53:37;;;;;;;30.97;18.07;;;5.10;44.80;;;;;;10372298;28;20237;-79
2021/01/06 01:58:41;;;;;;;31.00;19.10;;;5.10;45.10;;;;;;10394308;28;20310;-79
2021/01/06 02:03:50;;;;;;;29.80;17.30;;;5.00;44.80;;;;;;10380190;28;20248;-79
2021/01/06 02:08:58;;;;;;;29.03;18.70;;;5.00;45.00;;;;;;10382441;28;20770;-79
2021/01/06 02:14:07;;;;;;;31.40;18.57;;;5.00;45.00;;;;;;10388446;28;20230;-79
2021/01/06 02:19:11;;;;;;;29.13;16.57;;;5.00;45.20;;;;;;10383303;28;20230;-79
2021/01/06 02:24:15;;;;;;;33.93;18.67;;;5.00;45.00;;;;;;10397093;28;20256;-79
2021/01/06 02:29:17;;;;;;;35.70;17.60;;;5.00;45.00;;;;;;10398389;28;20240;-79
2021/01/06 02:34:20;;;;;;;29.53;17.70;;;5.00;45.00;;;;;;10392541;28;20240;-79
2021/01/06 02:39:23;;;;;;;25.50;16.13;;;5.10;45.00;;;;;;10451566;23;20230;-70
2021/01/06 02:44:26;;;;;;;29.77;17.00;;;5.10;45.10;;;;;;10422469;28;20217;-70
2021/01/06 02:49:29;;;;;;;22.20;14.57;;;5.10;45.00;;;;;;10421640;28;20264;-74
2021/01/06 02:54:36;;;;;;;31.80;18.03;;;5.10;45.00;;;;;;10429437;28;20311;-74
2021/01/06 02:59:41;;;;;;;32.40;17.23;;;5.00;45.20;;;;;;10431620;28;20311;-74
2021/01/06 03:04:49;;;;;;;34.83;17.53;;;5.00;45.20;;;;;;10437944;28;20229;-74
2021/01/06 03:09:52;;;;;;;29.63;18.07;;;5.00;45.40;;;;;;10428819;28;20233;-74
2021/01/06 03:14:55;;;;;;;32.13;16.93;;;5.10;45.40;;;;;;10434066;28;20279;-74
2021/01/06 03:20:01;;;;;;;33.40;17.23;;;5.10;45.20;;;;;;10420887;28;20235;-74
2021/01/06 03:25:07;;;;;;;32.60;18.33;;;5.10;45.40;;;;;;10431108;28;20252;-74
2021/01/06 03:30:16;;;;;;;30.20;18.17;;;5.10;45.40;;;;;;10423218;28;20597;-74
2021/01/06 03:35:27;;;;;;;40.53;18.53;;;5.10;45.40;;;;;;10420267;28;20595;-74
2021/01/06 03:40:35;;;;;;;29.63;15.27;;;5.10;45.60;;;;;;10418593;28;20247;-74
2021/01/06 03:45:41;;;;;;;37.00;17.73;;;5.10;45.30;;;;;;10432964;28;20225;-74
2021/01/06 03:50:45;;;;;;;37.67;17.87;;;5.10;45.30;;;;;;10424066;28;20275;-74
2021/01/06 03:55:52;;;;;;;40.23;18.77;;;5.10;45.20;;;;;;10420670;28;20236;-74
2021/01/06 04:00:59;;;;;;;31.67;17.70;;;5.10;45.30;;;;;;10424453;28;20260;-74
2021/01/06 04:06:03;;;;;;;35.00;19.37;;;5.00;45.20;;;;;;10430864;28;20240;-74
2021/01/06 04:11:08;;;;;;;25.63;17.77;;;5.00;45.40;;;;;;10433139;28;20226;-74
2021/01/06 04:16:13;;;;;;;30.47;18.57;;;5.00;45.50;;;;;;10416069;28;20230;-74
2021/01/06 04:21:15;;;;;;;27.40;17.57;;;5.00;45.40;;;;;;10422626;28;20227;-74
2021/01/06 04:26:19;;;;;;;28.27;17.87;;;5.00;45.40;;;;;;10425204;28;20229;-74
2021/01/06 04:31:22;;;;;;;28.10;19.37;;;5.00;46.20;;;;;;10436822;28;20232;-74
2021/01/06 04:36:26;;;;;;;34.53;19.60;;;5.00;45.40;;;;;;10422023;28;20312;-74
2021/01/06 04:41:52;;;;;;;27.60;17.73;;;4.90;45.40;;;;;;10428157;28;20608;-74
2021/01/06 04:47:17;;;;;;;27.10;17.53;;;4.90;45.90;;;;;;10412738;28;20641;-75
2021/01/06 04:52:34;;;;;;;24.63;16.73;;;4.80;46.30;;;;;;10436812;28;20222;-74
2021/01/06 04:57:54;;;;;;;23.10;15.97;;;4.80;46.40;;;;;;10419414;28;20229;-74
2021/01/06 05:03:32;;;;;;;24.00;14.87;;;4.90;46.50;;;;;;10418671;28;20284;-75
2021/01/06 05:08:38;;;;;;;18.40;14.23;;;4.90;46.70;;;;;;10446028;28;20565;-74
2021/01/06 05:13:47;;;;;;;18.30;14.73;;;4.90;46.00;;;;;;10413906;28;20227;-74
2021/01/06 05:18:49;;;;;;;17.80;13.53;;;5.00;46.10;;;;;;10410747;28;20617;-74
2021/01/06 05:23:57;;;;;;;20.40;14.57;;;5.00;45.80;;;;;;10423782;28;20300;-74
2021/01/06 05:29:01;;;;;;;20.10;15.10;;;5.00;46.10;;;;;;10418923;28;20383;-74
2021/01/06 05:34:04;;;;;;;19.83;14.70;;;5.10;46.10;;;;;;10423293;28;20235;-74
2021/01/06 05:39:20;;;;;;;18.43;14.67;;;5.10;45.80;;;;;;10416187;28;20240;-74
2021/01/06 05:44:24;;;;;;;21.10;15.57;;;5.10;46.50;;;;;;10420628;28;20221;-74
2021/01/06 05:49:31;;;;;;;21.97;16.80;;;5.10;46.10;;;;;;10414431;28;20578;-74
2021/01/06 05:54:39;;;;;;;23.47;17.43;;;5.00;46.30;;;;;;10420466;28;20221;-74
2021/01/06 06:00:14;;;;;;;22.60;16.83;;;5.00;46.90;;;;;;10418922;28;20728;-74
2021/01/06 06:05:36;;;;;;;22.17;15.80;;;4.90;47.30;;;;;;10418522;28;20309;-74
2021/01/06 06:10:54;;;;;;;20.07;14.40;;;4.90;47.20;;;;;;10419372;28;20663;-74
2021/01/06 06:16:30;;;;;;;21.00;15.47;;;4.90;47.30;;;;;;10417752;28;20233;-74
2021/01/06 06:21:41;;;;;;;19.43;14.80;;;4.90;47.50;;;;;;10416479;28;20511;-74
2021/01/06 06:26:51;;;;;;;19.67;14.97;;;5.00;47.00;;;;;;10406119;28;20237;-74
2021/01/06 06:31:57;;;;;;;19.03;13.57;;;5.00;46.80;;;;;;10425583;28;20239;-74
2021/01/06 06:37:09;;;;;;;17.90;13.50;;;5.00;46.60;;;;;;10410434;28;20722;-75
2021/01/06 06:42:24;;;;;;;19.57;14.73;;;5.00;47.00;;;;;;10425649;28;20325;-74
2021/01/06 06:47:50;;;;;;;16.33;13.43;;;5.10;47.10;;;;;;10423017;28;20656;-74
2021/01/06 06:53:03;;;;;;;16.73;12.37;;;5.10;47.00;;;;;;10410923;28;20229;-74
2021/01/06 06:58:32;;;;;;;16.47;12.83;;;5.10;46.60;;;;;;10412345;28;20234;-74
2021/01/06 07:03:37;;;;;;;16.47;12.60;;;5.20;47.20;;;;;;10413686;28;20242;-74
2021/01/06 07:08:45;;;;;;;16.50;12.60;;;5.20;46.50;;;;;;10420740;28;20234;-75
2021/01/06 07:13:55;;;;;;;15.17;11.93;;;5.20;46.80;;;;;;10424246;28;20245;-74
2021/01/06 07:19:21;;;;;;;11.90;10.53;;;5.30;46.80;;;;;;10421829;28;20228;-74
2021/01/06 07:24:25;;;;;;;13.47;11.37;;;5.30;47.10;;;;;;10422404;28;20221;-74
2021/01/06 07:29:32;;;;;;;14.17;11.57;;;5.30;46.30;;;;;;10427815;28;20225;-74
2021/01/06 07:34:40;;;;;;;15.00;11.47;;;5.30;46.30;;;;;;10431845;28;20244;-74
2021/01/06 07:39:43;;;;;;;13.23;11.40;;;5.30;46.90;;;;;;10411666;28;20229;-75
2021/01/06 07:44:45;;;;;;;14.40;11.87;;;5.30;46.40;;;;;;10420737;28;20229;-74
2021/01/06 07:49:53;;;;;;;11.97;10.67;;;5.30;46.40;;;;;;10423620;28;20724;-74
2021/01/06 07:55:02;;;;;;;12.57;10.33;;;5.20;46.90;;;;;;10419235;28;20240;-75
2021/01/06 08:00:10;;;;;;;11.00;9.20;;;5.20;46.90;;;;;;10420523;28;20220;-74
2021/01/06 08:05:27;;;;;;;11.87;10.23;;;5.10;47.00;;;;;;10430892;28;20225;-74
2021/01/06 08:10:29;;;;;;;12.23;10.53;;;5.10;47.50;;;;;;10431875;28;20838;-74
2021/01/06 08:15:32;;;;;;;11.97;10.23;;;5.10;46.90;;;;;;10414461;28;20230;-74
2021/01/06 08:20:38;;;;;;;9.90;8.67;;;5.10;46.90;;;;;;10420980;28;20224;-74
2021/01/06 08:25:41;;;;;;;11.70;10.43;;;5.10;47.20;;;;;;10411864;28;20713;-74
2021/01/06 08:30:43;;;;;;;11.80;9.77;;;5.10;47.30;;;;;;10418002;28;20237;-75
2021/01/06 08:35:50;;;;;;;11.67;10.10;;;5.10;47.00;;;;;;10416444;28;20324;-75
2021/01/06 08:40:52;;;;;;;11.33;9.63;;;5.00;47.60;;;;;;10432950;28;20781;-74
2021/01/06 08:45:57;;;;;;;11.47;10.27;;;5.00;47.20;;;;;;10430466;28;20286;-74
2021/01/06 08:51:08;;;;;;;10.80;9.40;;;5.00;47.50;;;;;;10440993;28;20588;-70
2021/01/06 08:56:19;;;;;;;10.77;9.47;;;5.00;48.00;;;;;;10413898;28;20245;-71
2021/01/06 09:01:32;;;;;;;10.63;9.50;;;5.10;47.50;;;;;;10419634;28;20234;-70
2021/01/06 09:06:48;;;;;;;12.03;10.57;;;5.10;47.90;;;;;;10427052;28;20591;-70
2021/01/06 09:11:54;;;;;;;11.47;10.07;;;5.10;48.10;;;;;;10414058;28;20229;-70
2021/01/06 09:17:03;;;;;;;13.43;11.77;;;5.10;47.30;;;;;;10407075;28;20320;-70
2021/01/06 09:22:07;;;;;;;15.53;13.10;;;5.20;47.60;;;;;;10413319;28;20544;-71
2021/01/06 09:27:23;;;;;;;13.43;11.57;;;5.20;47.50;;;;;;10409719;28;20556;-71
2021/01/06 09:32:30;;;;;;;13.33;11.53;;;5.20;48.20;;;;;;10413828;28;20229;-71
2021/01/06 09:37:36;;;;;;;15.53;13.93;;;5.30;47.30;;;;;;10409965;28;20755;-71
2021/01/06 09:42:40;;;;;;;13.27;11.87;;;5.30;47.30;;;;;;10414956;28;20229;-71
2021/01/06 09:47:43;;;;;;;15.80;13.50;;;5.20;47.20;;;;;;10406510;28;20587;-71
2021/01/06 09:52:49;;;;;;;12.27;10.97;;;5.30;47.30;;;;;;10427838;28;20229;-70
2021/01/06 09:57:57;;;;;;;11.43;10.23;;;5.30;47.30;;;;;;10434010;28;20235;-71
2021/01/06 10:03:00;;;;;;;11.63;10.43;;;5.30;47.30;;;;;;10433314;28;20239;-71
2021/01/06 10:08:18;;;;;;;11.83;10.60;;;5.30;47.00;;;;;;10431540;28;20566;-71
2021/01/06 10:13:32;;;;;;;10.37;9.27;;;5.20;47.70;;;;;;10421548;28;20239;-71
2021/01/06 10:18:58;;;;;;;9.77;8.53;;;5.20;47.60;;;;;;10417842;28;20224;-71
2021/01/06 10:24:20;;;;;;;9.67;8.67;;;5.20;47.90;;;;;;10426501;28;20221;-71
2021/01/06 10:29:45;;;;;;;10.13;9.07;;;5.30;47.70;;;;;;10430111;28;20598;-71
2021/01/06 10:35:32;;;;;;;10.57;9.57;;;5.30;48.00;;;;;;10423939;28;20236;-71
2021/01/06 10:40:38;;;;;;;9.80;8.80;;;5.30;47.80;;;;;;10415086;28;20594;-71
2021/01/06 10:45:47;;;;;;;9.50;8.60;;;5.30;47.50;;;;;;10420734;28;21068;-71
2021/01/06 10:50:49;;;;;;;10.37;8.70;;;5.30;47.80;;;;;;10424537;28;20237;-70
2021/01/06 10:56:01;;;;;;;9.57;8.57;;;5.30;47.20;;;;;;10418240;28;20237;-70
2021/01/06 11:01:29;;;;;;;10.63;9.53;;;5.40;47.40;;;;;;10426270;28;20225;-70
2021/01/06 11:06:36;;;;;;;9.73;8.77;;;5.40;47.50;;;;;;10426196;28;20716;-70
2021/01/06 11:12:17;;;;;;;9.07;8.20;;;5.30;47.20;;;;;;10424835;28;20236;-70
2021/01/06 11:17:35;;;;;;;10.63;8.90;;;5.40;47.80;;;;;;10424061;28;20890;-70
2021/01/06 11:22:39;;;;;;;8.90;8.00;;;5.40;47.90;;;;;;10425096;28;20233;-70
2021/01/06 11:27:46;;;;;;;10.30;9.33;;;5.40;47.30;;;;;;10423564;28;20231;-71
2021/01/06 11:32:49;;;;;;;8.73;7.90;;;5.30;47.40;;;;;;10421711;28;20715;-71
2021/01/06 11:37:53;;;;;;;9.03;8.17;;;5.30;47.20;;;;;;10422387;28;20229;-71
2021/01/06 11:43:12;;;;;;;8.80;8.00;;;5.30;47.30;;;;;;10423316;28;20243;-71
2021/01/06 11:48:31;;;;;;;9.03;8.23;;;5.30;47.30;;;;;;10424790;28;20235;-71
2021/01/06 11:53:40;;;;;;;8.13;7.33;;;5.40;47.60;;;;;;10421588;28;20744;-71
2021/01/06 11:59:16;;;;;;;9.17;8.37;;;5.40;47.30;;;;;;10423218;28;20405;-71
2021/01/06 12:05:01;;;;;;;8.83;8.03;;;5.40;48.20;;;;;;10421646;28;20225;-71
2021/01/06 12:10:10;;;;;;;9.27;8.33;;;5.40;47.40;;;;;;10412650;28;20689;-71
2021/01/06 12:15:33;;;;;;;9.73;8.73;;;5.40;47.00;;;;;;10421697;28;20224;-71
2021/01/06 12:20:36;;;;;;;8.63;7.83;;;5.40;47.90;;;;;;10433542;28;20228;-70
2021/01/06 12:25:43;;;;;;;11.37;10.17;;;5.40;46.90;;;;;;10434916;28;20244;-70
2021/01/06 12:31:04;;;;;;;10.50;9.50;;;5.40;47.00;;;;;;10431746;28;20264;-70
2021/01/06 12:36:29;;;;;;;10.10;9.10;;;5.40;47.00;;;;;;10426030;28;20308;-71
2021/01/06 12:41:48;;;;;;;9.90;8.97;;;5.30;47.30;;;;;;10418438;28;20313;-70
2021/01/06 12:46:57;;;;;;;9.67;8.77;;;5.30;47.30;;;;;;10418879;28;20236;-71
2021/01/06 12:52:18;;;;;;;8.97;8.13;;;5.30;47.10;;;;;;10414408;28;20247;-71
2021/01/06 12:57:25;;;;;;;8.17;7.37;;;5.40;47.50;;;;;;10411414;28;20831;-71
2021/01/06 13:02:32;;;;;;;9.27;8.47;;;5.40;47.00;;;;;;10420462;28;20217;-71
2021/01/06 13:07:35;;;;;;;9.47;8.57;;;5.50;47.20;;;;;;10416694;28;20239;-71
2021/01/06 13:12:46;;;;;;;8.83;8.03;;;5.50;46.80;;;;;;10424352;28;20239;-71
2021/01/06 13:18:00;;;;;;;9.37;8.43;;;5.60;46.80;;;;;;10419587;28;20813;-71
2021/01/06 13:23:20;;;;;;;9.70;8.80;;;5.60;46.90;;;;;;10415258;28;20235;-72
2021/01/06 13:28:34;;;;;;;10.53;9.50;;;5.70;47.00;;;;;;10417147;28;20232;-71
2021/01/06 13:33:50;;;;;;;10.23;9.23;;;5.70;46.60;;;;;;10413851;28;20236;-71
2021/01/06 13:39:06;;;;;;;9.63;8.67;;;5.70;46.40;;;;;;10414450;28;20236;-71
2021/01/06 13:44:36;;;;;;;10.20;9.20;;;5.60;46.70;;;;;;10416325;28;20317;-72
2021/01/06 13:49:57;;;;;;;10.73;9.73;;;5.60;46.90;;;;;;10410639;28;20316;-71
2021/01/06 13:55:21;;;;;;;9.17;8.27;;;5.60;46.90;;;;;;10417223;28;20259;-71
2021/01/06 14:00:33;;;;;;;10.17;9.17;;;5.60;46.90;;;;;;10409555;28;20232;-71
2021/01/06 14:05:39;;;;;;;9.33;8.47;;;5.60;46.70;;;;;;10418706;28;20832;-72
2021/01/06 14:10:51;;;;;;;9.93;9.03;;;5.60;46.70;;;;;;10410834;28;20236;-71
2021/01/06 14:16:16;;;;;;;9.50;8.70;;;5.60;46.70;;;;;;10413317;28;20228;-72
2021/01/06 14:21:23;;;;;;;9.77;8.87;;;5.70;47.00;;;;;;10455762;28;20707;-71
2021/01/06 14:26:37;;;;;;;9.70;8.80;;;5.70;46.60;;;;;;10468169;28;20232;-71
2021/01/06 14:31:43;;;;;;;9.90;9.00;;;5.70;46.80;;;;;;10464870;28;20231;-71
2021/01/06 14:36:49;;;;;;;9.37;8.47;;;5.70;46.50;;;;;;10469094;28;20316;-73
2021/01/06 14:42:05;;;;;;;9.50;8.63;;;5.70;46.70;;;;;;10472637;28;20224;-73
2021/01/06 14:47:39;;;;;;;10.60;9.63;;;5.70;46.70;;;;;;10458019;28;20220;-72
2021/01/06 14:52:57;;;;;;;11.23;10.03;;;5.70;46.80;;;;;;10458871;28;20247;-72
2021/01/06 14:58:07;;;;;;;9.97;8.97;;;5.70;47.60;;;;;;10461045;28;20228;-72
2021/01/06 15:03:30;;;;;;;9.43;8.60;;;5.70;46.80;;;;;;10463159;28;20217;-73
2021/01/06 15:08:47;;;;;;;9.47;8.57;;;5.80;46.60;;;;;;10462660;28;20239;-73
2021/01/06 15:13:59;;;;;;;9.07;8.37;;;5.70;46.50;;;;;;10463025;28;21820;-73
2021/01/06 15:19:05;;;;;;;9.53;8.73;;;5.70;46.30;;;;;;10462823;28;20611;-74
2021/01/06 15:24:17;;;;;;;9.13;8.37;;;5.70;46.20;;;;;;10459103;28;20239;-73
2021/01/06 15:29:27;;;;;;;8.80;8.00;;;5.70;46.40;;;;;;10471217;28;20232;-73
2021/01/06 15:34:30;;;;;;;8.63;7.93;;;5.60;46.20;;;;;;10466235;28;20304;-72
2021/01/06 15:39:38;;;;;;;8.83;8.13;;;5.60;46.30;;;;;;10466882;28;20216;-73
2021/01/06 15:44:42;;;;;;;9.20;8.30;;;5.60;46.50;;;;;;10467499;28;20243;-73
2021/01/06 15:49:46;;;;;;;7.70;6.93;;;5.60;46.30;;;;;;10472412;28;20282;-72
2021/01/06 15:54:59;;;;;;;8.80;8.00;;;5.60;46.60;;;;;;10468118;28;20244;-73
2021/01/06 16:00:07;;;;;;;8.60;7.90;;;5.60;46.70;;;;;;10472170;28;20316;-73
2021/01/06 16:05:24;;;;;;;9.37;8.43;;;5.60;46.50;;;;;;10463791;28;20235;-73
2021/01/06 16:10:33;;;;;;;8.70;7.93;;;5.60;46.60;;;;;;10468803;28;20235;-72
2021/01/06 16:15:37;;;;;;;9.13;8.33;;;5.60;46.40;;;;;;10458465;28;20320;-72
2021/01/06 16:20:40;;;;;;;9.83;8.83;;;5.60;46.30;;;;;;10463854;28;20231;-72
2021/01/06 16:25:45;;;;;;;9.47;8.67;;;5.60;46.30;;;;;;10469051;28;20360;-72
2021/01/06 16:30:53;;;;;;;9.93;9.00;;;5.60;46.10;;;;;;10463480;28;20241;-73
2021/01/06 16:35:59;;;;;;;9.87;8.97;;;5.60;46.30;;;;;;10463806;28;20604;-72
2021/01/06 16:41:17;;;;;;;9.77;8.77;;;5.60;46.10;;;;;;10456062;28;20591;-74
2021/01/06 16:46:23;;;;;;;10.97;9.97;;;5.60;46.20;;;;;;10465786;28;20224;-73
2021/01/06 16:51:28;;;;;;;10.43;9.50;;;5.50;46.20;;;;;;10471979;28;20231;-72
2021/01/06 16:56:40;;;;;;;17.90;14.10;;;5.50;46.10;;;;;;10471787;28;20315;-72
2021/01/06 17:01:46;;;;;;;10.47;9.37;;;5.50;46.20;;;;;;10449491;28;20227;-72
2021/01/06 17:06:50;;;;;;;11.90;9.93;;;5.40;46.10;;;;;;10453960;28;20239;-72
2021/01/06 17:12:00;;;;;;;11.37;10.20;;;5.40;46.20;;;;;;10458605;28;20240;-72
2021/01/06 17:17:13;;;;;;;11.20;9.87;;;5.30;46.30;;;;;;10458079;28;21016;-73
2021/01/06 17:22:21;;;;;;;10.27;9.27;;;5.40;46.30;;;;;;10458385;28;20236;-72
2021/01/06 17:27:26;;;;;;;12.47;11.20;;;5.30;46.40;;;;;;10458299;28;20235;-73
2021/01/06 17:32:29;;;;;;;12.47;11.17;;;5.40;46.50;;;;;;10458584;28;20368;-73
2021/01/06 17:37:48;;;;;;;14.37;12.60;;;5.40;46.40;;;;;;10461507;28;20236;-73
2021/01/06 17:42:55;;;;;;;11.13;10.03;;;5.40;46.60;;;;;;10460889;28;20649;-72
2021/01/06 17:47:59;;;;;;;12.30;11.10;;;5.30;46.40;;;;;;10460366;28;20322;-73
2021/01/06 17:53:04;;;;;;;12.03;10.83;;;5.30;46.40;;;;;;10457540;28;20612;-73
2021/01/06 17:58:07;;;;;;;12.13;10.93;;;5.30;46.50;;;;;;10456496;28;20235;-73
2021/01/06 18:03:13;;;;;;;13.57;11.50;;;5.30;46.30;;;;;;10459326;28;20789;-73
2021/01/06 18:08:17;;;;;;;13.07;11.77;;;5.30;46.50;;;;;;10459468;28;20880;-73
2021/01/06 18:13:19;;;;;;;12.87;11.57;;;5.30;46.40;;;;;;10463696;28;20224;-73
2021/01/06 18:18:23;;;;;;;13.53;11.30;;;5.20;46.30;;;;;;10457902;28;20240;-73
2021/01/06 18:23:27;;;;;;;13.10;11.80;;;5.20;46.50;;;;;;10458517;28;20695;-72
2021/01/06 18:28:32;;;;;;;14.70;11.73;;;5.20;46.40;;;;;;10459488;28;20232;-73
2021/01/06 18:33:40;;;;;;;12.37;11.10;;;5.20;46.30;;;;;;10470938;28;20231;-73
2021/01/06 18:38:52;;;;;;;13.87;12.47;;;5.10;46.60;;;;;;10453908;28;20231;-72
2021/01/06 18:43:55;;;;;;;14.70;12.47;;;5.10;46.60;;;;;;10453905;28;20690;-73
2021/01/06 18:48:58;;;;;;;16.57;13.20;;;5.10;46.60;;;;;;10454205;28;20265;-73
2021/01/06 18:54:01;;;;;;;19.43;13.83;;;5.10;46.60;;;;;;10451173;28;20311;-72
2021/01/06 18:59:04;;;;;;;15.03;13.43;;;5.00;46.60;;;;;;10476984;28;20696;-73
2021/01/06 19:04:06;;;;;;;13.03;11.70;;;5.00;46.60;;;;;;10455243;28;20244;-73
2021/01/06 19:09:09;;;;;;;13.03;11.73;;;5.00;46.80;;;;;;10478349;28;20242;-73
2021/01/06 19:14:11;;;;;;;12.27;10.97;;;5.00;46.80;;;;;;10477427;28;20216;-73
2021/01/06 19:19:14;;;;;;;11.90;10.27;;;5.10;46.70;;;;;;10473478;28;20307;-73
2021/01/06 19:24:25;;;;;;;11.67;10.47;;;5.10;46.60;;;;;;10474249;28;20224;-73
2021/01/06 19:29:27;;;;;;;10.67;9.57;;;5.00;46.70;;;;;;10481721;28;20234;-73
2021/01/06 19:34:29;;;;;;;10.97;9.57;;;5.00;46.70;;;;;;10462953;28;20223;-73
2021/01/06 19:39:32;;;;;;;10.23;8.83;;;5.00;46.80;;;;;;10461108;28;20228;-72
2021/01/06 19:44:35;;;;;;;10.67;9.33;;;5.00;46.70;;;;;;10464870;28;20231;-72
2021/01/06 19:49:37;;;;;;;11.13;9.33;;;5.00;46.60;;;;;;10463618;28;20732;-72
2021/01/06 19:54:40;;;;;;;9.97;8.93;;;4.90;46.60;;;;;;10463530;28;20231;-72
2021/01/06 19:59:46;;;;;;;9.93;8.70;;;4.90;47.10;;;;;;10463853;28;20345;-73
2021/01/06 20:05:00;;;;;;;10.17;9.07;;;5.00;46.70;;;;;;10461579;28;20611;-73
2021/01/06 20:10:24;;;;;;;10.47;9.37;;;4.90;46.80;;;;;;10462145;28;20685;-72
2021/01/06 20:15:28;;;;;;;12.23;9.50;;;4.90;46.90;;;;;;10457727;28;20233;-73
2021/01/06 20:20:31;;;;;;;10.77;9.53;;;4.90;46.60;;;;;;10463026;28;20227;-73
2021/01/06 20:25:34;;;;;;;9.63;8.63;;;4.90;46.60;;;;;;10460215;28;20247;-73
2021/01/06 20:30:36;;;;;;;11.63;9.30;;;4.90;46.80;;;;;;10462918;28;20748;-73
2021/01/06 20:35:38;;;;;;;9.93;8.90;;;4.90;46.60;;;;;;10461742;28;20312;-72
2021/01/06 20:40:42;;;;;;;10.00;8.83;;;4.90;46.50;;;;;;10460796;28;20225;-72
2021/01/06 20:45:47;;;;;;;13.03;10.63;;;4.80;46.60;;;;;;10459332;28;20236;-73
2021/01/06 20:50:52;;;;;;;12.40;10.23;;;4.80;46.80;;;;;;10458402;28;20309;-77
2021/01/06 20:55:55;;;;;;;12.53;10.67;;;4.80;46.90;;;;;;10466153;28;20319;-77
2021/01/06 21:00:58;;;;;;;10.90;9.80;;;4.80;46.90;;;;;;10463607;28;20857;-77
2021/01/06 21:06:00;;;;;;;11.83;9.57;;;4.90;46.80;;;;;;10472109;28;20229;-77
2021/01/06 21:11:03;;;;;;;9.87;8.80;;;4.90;46.60;;;;;;10464040;28;20250;-75
2021/01/06 21:16:06;;;;;;;9.67;8.67;;;4.90;46.60;;;;;;10472382;28;20233;-75
2021/01/06 21:21:08;;;;;;;9.53;8.60;;;4.90;46.60;;;;;;10457253;28;20324;-76
2021/01/06 21:26:11;;;;;;;9.77;7.93;;;4.80;46.60;;;;;;10462847;28;20224;-76
2021/01/06 21:31:17;;;;;;;11.10;8.67;;;4.80;46.60;;;;;;10457807;28;20225;-73
2021/01/06 21:36:20;;;;;;;9.30;8.30;;;4.80;46.60;;;;;;10449416;28;20692;-73
2021/01/06 21:41:23;;;;;;;9.50;8.50;;;4.80;46.60;;;;;;10458989;28;20239;-73
2021/01/06 21:46:30;;;;;;;9.40;8.50;;;4.80;46.70;;;;;;10459833;28;20645;-77
2021/01/06 21:51:32;;;;;;;10.10;8.80;;;4.80;46.60;;;;;;10465258;28;20235;-76
2021/01/06 21:56:35;;;;;;;11.97;8.57;;;4.70;46.60;;;;;;10458169;28;20237;-72
2021/01/06 22:01:41;;;;;;;9.73;8.47;;;4.80;46.80;;;;;;10454586;28;20225;-73
2021/01/06 22:06:43;;;;;;;9.47;7.80;;;4.80;46.80;;;;;;10452351;28;20248;-73
2021/01/06 22:11:46;;;;;;;8.10;7.30;;;4.80;46.70;;;;;;10450056;28;20237;-73
2021/01/06 22:16:53;;;;;;;8.57;7.50;;;4.80;46.80;;;;;;10458360;28;20246;-76
2021/01/06 22:21:56;;;;;;;7.30;6.60;;;4.70;46.90;;;;;;10464640;28;20221;-77
2021/01/06 22:27:00;;;;;;;7.63;6.80;;;4.70;46.70;;;;;;10466858;28;20235;-73
2021/01/06 22:32:02;;;;;;;7.80;6.60;;;4.70;46.70;;;;;;10455929;28;20226;-73
2021/01/06 22:37:22;;;;;;;7.57;6.67;;;4.70;46.80;;;;;;10455160;28;20235;-76
2021/01/06 22:42:25;;;;;;;7.00;6.27;;;4.80;46.70;;;;;;10468873;28;20646;-73
2021/01/06 22:47:27;;;;;;;9.37;7.17;;;4.80;46.60;;;;;;10463593;28;20246;-73
2021/01/06 22:52:29;;;;;;;6.67;6.03;;;4.80;46.60;;;;;;10465742;28;20238;-77
2021/01/06 22:57:34;;;;;;;10.50;7.63;;;4.80;46.60;;;;;;10461624;28;20247;-77
2021/01/06 23:02:36;;;;;;;9.87;7.60;;;4.70;46.60;;;;;;10470188;28;20236;-76
2021/01/06 23:07:38;;;;;;;9.33;7.33;;;4.70;46.60;;;;;;10464872;28;20236;-77
2021/01/06 23:12:42;;;;;;;7.53;6.83;;;4.70;46.60;;;;;;10481249;28;20224;-77
2021/01/06 23:17:44;;;;;;;7.43;6.73;;;4.70;46.60;;;;;;10475111;28;20315;-77
2021/01/06 23:22:47;;;;;;;7.57;6.87;;;4.70;46.60;;;;;;10466605;28;20255;-73
2021/01/06 23:27:55;;;;;;;7.90;7.13;;;4.70;46.70;;;;;;10461686;28;20221;-73
2021/01/06 23:32:57;;;;;;;7.80;7.00;;;4.70;46.80;;;;;;10461371;28;20238;-73
2021/01/06 23:37:59;;;;;;;9.07;7.73;;;4.70;46.70;;;;;;10458897;28;20231;-73
2021/01/06 23:43:02;;;;;;;9.57;7.77;;;4.70;46.80;;;;;;10461139;28;20256;-74
2021/01/06 23:48:05;;;;;;;7.87;7.07;;;4.70;46.80;;;;;;10454061;28;20300;-74
2021/01/06 23:53:07;;;;;;;8.27;7.43;;;4.70;46.70;;;;;;10465898;28;20232;-73
2021/01/06 23:58:10;;;;;;;8.40;7.50;;;4.70;46.70;;;;;;10466212;28;20261;-73
